Time;durP1;ratioP1;P1;durP2;ratioP2;P2;SDS_P1;SDS_P2;PMS_P1;PMS_P2;Temp;Humidity;BMP_temperature;BMP_pressure;BME280_temperature;BME280_humidity;BME280_pressure;Samples;Min_cycle;Max_cycle;Signal;HPM_P1;HPM_P2
2020/12/14 00:02:11;;;;;;;37.38;4.82;;;;;;;12.04;82.69;98269.22;4411070;32;20079;-73
2020/12/14 00:04:37;;;;;;;22.40;3.97;;;;;;;12.11;82.58;98274.34;4412804;32;20083;-74
2020/12/14 00:07:04;;;;;;;28.48;4.22;;;;;;;12.09;82.45;98271.28;4409492;32;20062;-74
2020/12/14 00:09:31;;;;;;;23.20;4.80;;;;;;;12.07;82.50;98265.38;4412354;32;20030;-74
2020/12/14 00:11:58;;;;;;;31.87;4.43;;;;;;;11.95;82.82;98253.31;4410411;32;20086;-75
2020/12/14 00:14:24;;;;;;;35.85;5.03;;;;;;;12.07;82.35;98256.91;4410402;32;20139;-73
2020/12/14 00:16:50;;;;;;;27.55;4.70;;;;;;;12.04;82.29;98250.25;4410537;32;20069;-75
2020/12/14 00:19:16;;;;;;;27.58;4.95;;;;;;;12.04;82.29;98247.44;4410761;32;20379;-75
2020/12/14 00:21:41;;;;;;;26.15;4.25;;;;;;;11.98;82.51;98252.28;4413184;32;20471;-74
2020/12/14 00:24:07;;;;;;;35.33;4.72;;;;;;;11.94;82.77;98248.19;4410327;32;20463;-74
2020/12/14 00:26:33;;;;;;;29.20;4.35;;;;;;;12.02;82.61;98243.56;4410316;32;20046;-75
2020/12/14 00:28:58;;;;;;;46.40;5.20;;;;;;;11.98;83.11;98232.56;4412666;32;20081;-75
2020/12/14 00:31:24;;;;;;;38.88;5.30;;;;;;;11.87;83.26;98223.28;4410743;32;20383;-74
2020/12/14 00:33:50;;;;;;;28.60;6.40;;;;;;;11.97;82.85;98216.16;4419260;26;20432;-79
2020/12/14 00:36:16;;;;;;;24.10;4.20;;;;;;;11.94;82.86;98220.75;4392402;32;20089;-79
2020/12/14 00:38:42;;;;;;;36.85;5.35;;;;;;;11.96;83.17;98223.84;4404992;32;20142;-79
2020/12/14 00:41:15;;;;;;;33.78;4.75;;;;;;;11.90;83.35;98211.00;4407343;32;20053;-79
2020/12/14 00:43:41;;;;;;;27.15;4.18;;;;;;;11.93;83.28;98215.63;4403744;32;20120;-78
2020/12/14 00:46:11;;;;;;;44.80;5.55;;;;;;;11.92;83.28;98228.19;4407541;32;20086;-79
2020/12/14 00:48:37;;;;;;;38.35;4.95;;;;;;;11.90;83.20;98231.50;4407761;32;20070;-78
2020/12/14 00:51:02;;;;;;;23.52;4.32;;;;;;;11.85;83.05;98232.25;4406952;32;20392;-78
2020/12/14 00:53:28;;;;;;;33.90;5.18;;;;;;;11.88;82.84;98238.94;4393751;32;20390;-80
2020/12/14 00:55:54;;;;;;;37.58;4.87;;;;;;;11.87;82.93;98234.56;4402822;32;20041;-78
2020/12/14 00:58:19;;;;;;;27.60;4.80;;;;;;;11.84;82.65;98233.53;4406505;32;20145;-80
2020/12/14 01:00:45;;;;;;;30.83;4.57;;;;;;;11.88;82.37;98234.06;4405909;32;20169;-79
2020/12/14 01:03:11;;;;;;;35.78;4.37;;;;;;;11.85;82.29;98228.69;4405610;32;20465;-81
2020/12/14 01:05:36;;;;;;;34.63;4.95;;;;;;;11.83;82.16;98231.22;4406036;32;20038;-79
2020/12/14 01:08:02;;;;;;;30.10;4.90;;;;;;;11.86;81.52;98236.62;4404969;32;20113;-77
2020/12/14 01:10:28;;;;;;;27.80;4.70;;;;;;;11.88;81.14;98227.66;4405367;32;20432;-78
2020/12/14 01:12:53;;;;;;;35.38;5.40;;;;;;;11.85;80.69;98225.84;4409379;32;20102;-77
2020/12/14 01:15:19;;;;;;;33.25;4.20;;;;;;;11.91;80.34;98235.09;4404717;32;20090;-78
2020/12/14 01:17:44;;;;;;;31.70;4.15;;;;;;;11.89;80.20;98234.81;4407902;32;20080;-78
2020/12/14 01:20:13;;;;;;;21.30;3.70;;;;;;;11.94;79.97;98234.09;4405663;32;20098;-78
2020/12/14 01:22:42;;;;;;;28.02;4.03;;;;;;;11.83;80.47;98226.38;4405679;32;20101;-78
2020/12/14 01:25:08;;;;;;;34.38;4.05;;;;;;;11.82;80.27;98227.63;4392553;32;20128;-79
2020/12/14 01:27:34;;;;;;;26.45;3.47;;;;;;;11.90;79.89;98228.69;4406773;32;20101;-79
2020/12/14 01:30:00;;;;;;;32.60;4.18;;;;;;;11.99;79.42;98224.84;4393771;32;20493;-78
2020/12/14 01:32:26;;;;;;;38.08;4.43;;;;;;;11.93;79.64;98222.03;4405545;32;20030;-79
2020/12/14 01:34:52;;;;;;;34.67;5.22;;;;;;;11.95;79.53;98208.22;4405591;32;20061;-80
2020/12/14 01:37:17;;;;;;;32.58;4.80;;;;;;;12.00;79.80;98215.16;4403457;32;20026;-79
2020/12/14 01:39:43;;;;;;;28.80;4.15;;;;;;;12.13;79.41;98209.00;4410919;32;20103;-79
2020/12/14 01:42:09;;;;;;;30.73;4.53;;;;;;;12.08;79.36;98202.06;4404721;32;20117;-79
2020/12/14 01:44:34;;;;;;;28.23;5.20;;;;;;;12.13;78.99;98204.16;4404435;32;20038;-79
2020/12/14 01:47:02;;;;;;;27.05;4.47;;;;;;;12.16;79.14;98191.84;4404722;32;20074;-79
2020/12/14 01:49:30;;;;;;;28.87;4.62;;;;;;;12.17;78.92;98206.69;4406921;32;20070;-79
2020/12/14 01:51:56;;;;;;;23.30;4.35;;;;;;;12.26;78.73;98218.50;4403090;32;20456;-79
2020/12/14 01:54:26;;;;;;;35.40;5.25;;;;;;;12.17;79.09;98226.44;4404287;32;20387;-79
2020/12/14 01:56:52;;;;;;;26.20;3.97;;;;;;;12.21;78.95;98230.53;4394690;32;20175;-79
2020/12/14 01:59:17;;;;;;;31.12;4.72;;;;;;;12.19;78.97;98212.59;4403491;32;20424;-80
2020/12/14 02:01:43;;;;;;;31.98;3.87;;;;;;;12.16;79.03;98224.91;4403994;32;20034;-79
2020/12/14 02:04:09;;;;;;;28.20;4.00;;;;;;;12.10;79.26;98208.72;4404903;32;20619;-79
2020/12/14 02:06:34;;;;;;;30.15;4.35;;;;;;;12.10;79.17;98220.00;4404825;32;20047;-79
2020/12/14 02:09:00;;;;;;;27.33;3.85;;;;;;;12.03;79.49;98225.41;4404562;32;20093;-78
2020/12/14 02:11:26;;;;;;;25.00;4.10;;;;;;;12.13;79.09;98227.44;4409674;32;20081;-79
2020/12/14 02:13:52;;;;;;;31.12;4.15;;;;;;;12.09;79.20;98232.56;4404125;32;20446;-79
2020/12/14 02:16:17;;;;;;;33.97;4.57;;;;;;;12.05;79.10;98231.28;4404981;32;20077;-79
2020/12/14 02:18:43;;;;;;;30.67;4.32;;;;;;;12.06;79.38;98244.88;4406708;32;20073;-79
2020/12/14 02:21:13;;;;;;;26.95;4.53;;;;;;;12.12;79.46;98241.31;4403439;32;20070;-79
2020/12/14 02:23:38;;;;;;;39.53;5.18;;;;;;;12.07;79.49;98246.44;4405354;32;20556;-79
2020/12/14 02:26:04;;;;;;;39.13;5.28;;;;;;;12.16;79.35;98245.41;4405324;32;20097;-79
2020/12/14 02:28:29;;;;;;;32.10;4.35;;;;;;;12.10;79.47;98245.38;4404584;32;20077;-79
2020/12/14 02:30:55;;;;;;;29.02;4.20;;;;;;;12.18;79.28;98251.28;4405542;32;20095;-80
2020/12/14 02:33:21;;;;;;;32.05;4.70;;;;;;;12.25;79.06;98233.13;4404926;32;20069;-79
2020/12/14 02:35:46;;;;;;;35.10;4.97;;;;;;;12.32;78.79;98233.37;4403830;32;20099;-79
2020/12/14 02:38:12;;;;;;;29.42;4.55;;;;;;;12.32;78.62;98233.37;4400991;32;20081;-79
2020/12/14 02:40:38;;;;;;;30.17;4.30;;;;;;;12.25;78.82;98222.63;4405178;32;20138;-79
2020/12/14 02:43:03;;;;;;;31.45;4.50;;;;;;;12.21;78.87;98207.97;4405537;32;20150;-82
2020/12/14 02:45:29;;;;;;;33.05;4.53;;;;;;;12.12;79.23;98207.47;4404594;32;20077;-79
2020/12/14 02:47:55;;;;;;;38.25;4.95;;;;;;;12.16;79.10;98216.44;4408070;32;20076;-79
2020/12/14 02:50:20;;;;;;;41.33;4.75;;;;;;;12.07;79.43;98211.81;4401688;32;20074;-78
2020/12/14 02:52:46;;;;;;;35.45;5.32;;;;;;;12.10;79.13;98214.38;4407080;32;20053;-79
2020/12/14 02:55:12;;;;;;;28.17;4.03;;;;;;;12.18;78.99;98211.81;4403849;32;20042;-79
2020/12/14 02:57:37;;;;;;;28.75;4.40;;;;;;;12.23;78.59;98205.44;4405485;32;20141;-79
2020/12/14 03:00:05;;;;;;;35.78;4.78;;;;;;;12.23;78.73;98210.28;4403898;32;20058;-78
2020/12/14 03:02:30;;;;;;;28.33;4.70;;;;;;;12.17;78.85;98209.50;4403603;32;20065;-79
2020/12/14 03:04:56;;;;;;;32.25;4.75;;;;;;;12.22;78.51;98211.59;4403733;32;20054;-79
2020/12/14 03:07:21;;;;;;;36.00;5.30;;;;;;;12.23;78.31;98211.06;4407268;32;20146;-79
2020/12/14 03:09:47;;;;;;;30.42;5.28;;;;;;;12.13;78.53;98206.19;4406563;32;20066;-78
2020/12/14 03:12:13;;;;;;;26.27;3.47;;;;;;;12.16;78.68;98207.97;4403788;32;20081;-79
2020/12/14 03:14:38;;;;;;;36.05;4.90;;;;;;;12.16;78.55;98214.41;4396466;32;20120;-78
2020/12/14 03:17:04;;;;;;;37.20;5.18;;;;;;;12.07;78.33;98195.69;4408368;32;20386;-78
2020/12/14 03:19:30;;;;;;;26.77;4.28;;;;;;;12.13;78.07;98197.72;4407293;32;20638;-78
2020/12/14 03:21:56;;;;;;;29.90;4.55;;;;;;;12.08;77.80;98204.91;4405364;32;20041;-78
2020/12/14 03:24:21;;;;;;;23.12;3.60;;;;;;;12.17;77.38;98203.88;4407472;32;20465;-79
2020/12/14 03:26:49;;;;;;;25.85;4.28;;;;;;;12.02;77.73;98202.06;4405147;32;20444;-78
2020/12/14 03:29:15;;;;;;;25.17;3.40;;;;;;;12.10;77.26;98205.16;4404877;32;20049;-78
2020/12/14 03:31:41;;;;;;;28.95;3.67;;;;;;;12.13;76.76;98204.91;4406679;32;20405;-79
2020/12/14 03:34:06;;;;;;;23.45;3.47;;;;;;;12.18;76.55;98196.97;4404785;32;20459;-78
2020/12/14 03:36:32;;;;;;;22.95;3.47;;;;;;;12.12;76.87;98202.59;4407975;32;20127;-79
2020/12/14 03:38:58;;;;;;;22.98;3.60;;;;;;;11.96;77.04;98181.56;4407357;32;20030;-78
2020/12/14 03:41:24;;;;;;;22.40;3.42;;;;;;;12.01;76.94;98197.72;4407629;32;20485;-78
2020/12/14 03:43:51;;;;;;;31.70;3.95;;;;;;;11.97;77.00;98194.37;4405785;32;20502;-79
2020/12/14 03:48:56;;;;;;;22.52;3.62;;;;;;;12.46;75.34;98189.31;3978830;32;15153819;-79
2020/12/14 03:51:23;;;;;;;23.65;2.83;;;;;;;12.46;75.34;98189.31;4430900;32;20099;-80
2020/12/14 03:53:49;;;;;;;15.00;2.37;;;;;;;12.00;76.07;98184.91;4433879;32;20144;-78
2020/12/14 03:56:23;;;;;;;23.50;3.20;;;;;;;11.91;76.70;98178.75;4433611;32;20070;-78
2020/12/14 03:58:49;;;;;;;22.50;2.90;;;;;;;11.87;76.46;98181.03;4430679;32;20111;-80
2020/12/14 04:01:25;;;;;;;22.73;3.17;;;;;;;11.82;76.81;98191.00;4430892;32;20068;-79
2020/12/14 04:03:52;;;;;;;21.87;2.78;;;;;;;11.90;76.54;98186.41;4433379;32;20018;-80
2020/12/14 04:06:23;;;;;;;22.13;2.53;;;;;;;11.85;76.99;98192.03;4433553;32;20956;-79
2020/12/14 04:08:49;;;;;;;14.25;2.20;;;;;;;11.89;77.21;98196.16;4434635;32;20095;-78
2020/12/14 04:11:16;;;;;;;19.10;2.92;;;;;;;11.83;77.09;98219.94;4437998;32;20527;-79
2020/12/14 04:13:41;;;;;;;16.02;2.45;;;;;;;11.83;77.58;98203.81;4433841;32;20453;-79
2020/12/14 04:16:08;;;;;;;20.52;3.08;;;;;;;11.96;77.21;98203.31;4433749;32;20061;-79
2020/12/14 04:18:35;;;;;;;22.52;3.17;;;;;;;11.96;77.73;98211.78;4430904;32;20457;-79
2020/12/14 04:21:00;;;;;;;22.33;3.35;;;;;;;11.86;78.92;98214.09;4433799;32;20069;-79
2020/12/14 04:23:26;;;;;;;21.67;2.58;;;;;;;11.89;78.87;98226.38;4431839;32;20045;-79
2020/12/14 04:25:52;;;;;;;17.08;2.25;;;;;;;11.82;78.83;98227.63;4434140;32;20018;-78
2020/12/14 04:28:17;;;;;;;17.10;2.85;;;;;;;11.87;78.24;98214.84;4434099;32;20068;-78
2020/12/14 04:30:43;;;;;;;20.25;2.53;;;;;;;11.76;78.47;98192.28;4433720;32;20100;-79
2020/12/14 04:33:09;;;;;;;20.05;2.60;;;;;;;11.81;78.01;98203.56;4432587;32;20091;-78
2020/12/14 04:35:35;;;;;;;16.30;2.35;;;;;;;11.84;77.95;98210.22;4421531;32;20052;-79
2020/12/14 04:38:00;;;;;;;14.18;2.28;;;;;;;11.87;77.52;98217.66;4420587;32;20448;-80
2020/12/14 04:40:27;;;;;;;13.15;2.67;;;;;;;11.93;76.71;98233.31;4420339;32;20055;-80
2020/12/14 04:42:57;;;;;;;17.87;2.40;;;;;;;11.96;76.70;98242.78;4419329;32;20433;-79
2020/12/14 04:45:24;;;;;;;13.65;2.53;;;;;;;11.93;77.62;98240.97;4417381;32;20354;-80
2020/12/14 04:47:54;;;;;;;18.60;2.10;;;;;;;11.82;79.23;98233.25;4419866;32;20054;-81
2020/12/14 04:50:21;;;;;;;11.60;2.35;;;;;;;11.78;80.80;98220.69;4416852;32;20473;-79
2020/12/14 04:52:48;;;;;;;13.13;2.58;;;;;;;11.72;81.15;98217.87;4416914;32;20434;-80
2020/12/14 04:55:15;;;;;;;16.17;2.70;;;;;;;11.60;82.74;98209.87;4415520;32;21391;-80
2020/12/14 04:57:43;;;;;;;10.48;1.98;;;;;;;11.48;83.41;98211.84;4417517;32;20414;-78
2020/12/14 05:00:09;;;;;;;11.43;2.12;;;;;;;11.31;84.00;98211.00;4407688;32;20045;-78
2020/12/14 05:02:34;;;;;;;13.23;2.28;;;;;;;11.24;83.87;98200.22;4409285;32;20402;-80
2020/12/14 05:05:00;;;;;;;20.08;2.92;;;;;;;11.23;83.92;98212.00;4410732;32;20018;-80
2020/12/14 05:07:43;;;;;;;13.75;2.05;;;;;;;11.19;83.74;98217.06;4407188;32;20066;-80
2020/12/14 05:10:11;;;;;;;21.37;2.33;;;;;;;11.18;84.01;98215.53;4411782;32;20071;-80
2020/12/14 05:12:42;;;;;;;18.77;2.30;;;;;;;11.14;84.01;98212.94;4410045;32;20046;-80
2020/12/14 05:15:28;;;;;;;12.25;2.10;;;;;;;11.15;84.06;98219.34;4408341;32;20122;-80
2020/12/14 05:18:15;;;;;;;13.43;1.90;;;;;;;11.17;83.93;98214.75;4408303;32;20434;-80
2020/12/14 05:20:43;;;;;;;14.73;2.05;;;;;;;11.21;84.02;98214.53;4407539;32;20557;-80
2020/12/14 05:23:10;;;;;;;10.85;1.55;;;;;;;11.19;84.32;98211.44;4406353;32;20523;-80
2020/12/14 05:25:37;;;;;;;14.20;1.73;;;;;;;11.13;84.76;98213.44;4410069;32;20093;-80
2020/12/14 05:28:05;;;;;;;12.37;2.42;;;;;;;11.09;84.88;98219.34;4408971;32;20084;-79
2020/12/14 05:33:18;;;;;;;15.45;2.25;;;;;;;11.57;83.39;98222.91;3973053;32;15022244;-79
2020/12/14 05:35:45;;;;;;;18.55;2.20;;;;;;;11.57;83.39;98222.91;4415780;32;20077;-78
2020/12/14 05:40:52;;;;;;;11.80;2.55;;;;;;;11.67;84.39;98220.66;3982403;32;15022974;-78
2020/12/14 05:43:20;;;;;;;9.00;2.58;;;;;;;11.67;84.39;98220.66;4432611;32;20084;-79
2020/12/14 05:45:48;;;;;;;16.23;2.70;;;;;;;11.25;85.71;98226.31;4436353;32;20065;-78
2020/12/14 05:48:34;;;;;;;13.32;2.37;;;;;;;11.11;86.48;98222.41;4434146;32;20081;-77
2020/12/14 05:51:00;;;;;;;;;;;;;;;11.17;86.12;98226.03;4436947;32;20052;-77
2020/12/14 05:53:57;;;;;;;21.10;3.00;;;;;;;11.21;86.08;98220.94;4432152;32;19976;-78
2020/12/14 05:56:25;;;;;;;13.95;2.58;;;;;;;11.26;86.15;98225.81;4434719;32;20013;-76
2020/12/14 05:58:55;;;;;;;23.83;3.00;;;;;;;11.24;85.25;98231.19;4434355;32;20034;-78
2020/12/14 06:01:21;;;;;;;25.20;2.90;;;;;;;11.12;85.16;98229.59;4432348;32;20858;-77
2020/12/14 06:03:48;;;;;;;20.98;2.72;;;;;;;10.93;84.81;98225.63;4433090;32;20059;-78
2020/12/14 06:06:15;;;;;;;14.57;2.40;;;;;;;10.98;85.31;98252.28;4435357;32;20096;-77
2020/12/14 06:09:04;;;;;;;23.08;2.55;;;;;;;10.99;85.71;98257.41;4435111;32;20025;-77
2020/12/14 06:11:34;;;;;;;23.17;2.62;;;;;;;10.91;85.94;98230.19;4431891;32;20081;-76
2020/12/14 06:14:02;;;;;;;21.02;2.67;;;;;;;10.90;85.92;98237.09;4431809;32;20076;-77
2020/12/14 06:19:04;;;;;;;20.55;2.28;;;;;;;11.15;83.42;98244.69;3953648;32;15726579;-79
2020/12/14 06:24:18;;;;;;;21.60;3.08;;;;;;;11.14;83.31;98237.53;3976015;32;15033103;-77
2020/12/14 06:26:45;;;;;;;27.20;3.53;;;;;;;11.14;83.31;98237.53;4432644;32;20091;-79
2020/12/14 06:29:29;;;;;;;15.82;2.47;;;;;;;10.65;84.21;98237.94;4429066;32;20077;-77
2020/12/14 06:31:55;;;;;;;22.23;2.50;;;;;;;10.64;84.17;98239.97;4429063;32;20078;-79
2020/12/14 06:37:04;;;;;;;26.17;3.07;;;;;;;11.05;83.81;98251.78;3998670;31;15024482;-76
2020/12/14 06:39:33;;;;;;;23.40;3.78;;;;;;;11.05;83.81;98251.78;4452762;32;20159;-77
2020/12/14 06:47:41;;;;;;;28.50;4.25;;;;;;;11.13;83.92;98276.16;3990074;32;15032944;-76
2020/12/14 06:53:00;;;;;;;19.97;3.27;;;;;;;11.16;83.62;98286.41;4000945;31;15017973;-78
2020/12/14 06:55:44;;;;;;;23.02;2.87;;;;;;;11.16;83.62;98286.41;4455333;32;20146;-78
2020/12/14 06:58:28;;;;;;;36.13;3.78;;;;;;;10.77;84.88;98282.53;4441690;32;20394;-77
2020/12/14 07:00:54;;;;;;;23.52;3.12;;;;;;;10.71;85.29;98289.38;4455101;32;20056;-78
2020/12/14 07:03:36;;;;;;;19.87;3.92;;;;;;;10.78;84.98;98289.72;4455302;32;20026;-76
2020/12/14 07:06:04;;;;;;;26.27;2.87;;;;;;;10.86;84.17;98296.41;4455295;32;20072;-78
2020/12/14 07:08:41;;;;;;;21.25;3.47;;;;;;;10.80;83.70;98298.41;4455604;32;20080;-78
2020/12/14 07:11:12;;;;;;;22.85;3.12;;;;;;;10.82;83.44;98289.47;4456108;32;20100;-80
2020/12/14 07:13:38;;;;;;;17.02;2.30;;;;;;;10.80;82.58;98300.47;4453325;32;20059;-78
2020/12/14 07:16:06;;;;;;;19.52;3.30;;;;;;;10.76;82.45;98303.50;4456026;32;20048;-77
2020/12/14 07:18:33;;;;;;;16.20;2.35;;;;;;;10.83;82.42;98291.78;4454031;32;20601;-79
2020/12/14 07:21:07;;;;;;;16.62;3.22;;;;;;;10.80;82.03;98286.41;4439605;32;20444;-77
2020/12/14 07:23:36;;;;;;;19.45;2.75;;;;;;;10.72;82.11;98290.91;4454534;32;20385;-78
2020/12/14 07:26:03;;;;;;;19.33;3.45;;;;;;;10.69;81.82;98292.69;4454065;32;20520;-77
2020/12/14 07:28:51;;;;;;;16.48;2.87;;;;;;;10.62;82.01;98301.59;4453407;32;20084;-79
2020/12/14 07:31:20;;;;;;;20.33;2.87;;;;;;;10.61;81.25;98305.66;4453600;32;20952;-78
2020/12/14 07:33:55;;;;;;;20.33;2.58;;;;;;;10.61;81.35;98311.28;4445728;32;20069;-78
2020/12/14 07:36:21;;;;;;;;;;;;;;;10.64;80.90;98306.69;4436433;32;20077;-77
2020/12/14 07:38:49;;;;;;;20.33;3.40;;;;;;;10.58;80.66;98303.09;4437019;32;20306;-79
2020/12/14 07:41:15;;;;;;;14.45;2.47;;;;;;;10.66;80.81;98309.78;4436502;32;20049;-80
2020/12/14 07:43:43;;;;;;;15.10;3.12;;;;;;;10.61;81.18;98305.66;4430215;32;20081;-76
2020/12/14 07:51:36;;;;;;;23.08;3.92;;;;;;;11.12;80.98;98333.72;3975779;32;15024164;-81
2020/12/14 07:54:05;;;;;;;19.55;3.15;;;;;;;11.12;80.98;98333.72;4429058;32;20507;-78
2020/12/14 07:56:31;;;;;;;22.52;3.15;;;;;;;10.73;81.77;98331.84;4428797;32;20442;-78
2020/12/14 07:58:57;;;;;;;28.02;4.25;;;;;;;10.64;82.61;98327.16;4426639;32;20156;-77
2020/12/14 08:01:22;;;;;;;20.45;4.07;;;;;;;10.65;82.88;98333.56;4425950;32;20089;-83
2020/12/14 08:03:48;;;;;;;26.90;3.10;;;;;;;10.62;82.95;98340.97;4428948;32;20830;-77
2020/12/14 08:06:16;;;;;;;21.23;3.45;;;;;;;10.65;83.13;98339.19;4426987;32;20130;-78
2020/12/14 08:08:47;;;;;;;22.87;4.37;;;;;;;10.68;83.18;98352.25;4425945;32;20400;-79
2020/12/14 08:11:14;;;;;;;25.02;3.47;;;;;;;10.81;82.74;98350.59;4426674;32;20141;-78
2020/12/14 08:13:43;;;;;;;21.90;3.95;;;;;;;10.80;82.96;98348.28;4428604;32;20061;-78
2020/12/14 08:16:10;;;;;;;24.95;3.30;;;;;;;10.80;82.43;98354.66;4428556;32;20476;-78
2020/12/14 08:18:36;;;;;;;21.52;3.28;;;;;;;10.87;82.18;98357.06;4423637;32;20523;-80
2020/12/14 08:21:01;;;;;;;19.35;2.97;;;;;;;10.87;81.77;98351.41;4427244;32;20516;-80
2020/12/14 08:23:30;;;;;;;21.75;4.05;;;;;;;10.90;81.40;98360.91;4429497;32;20081;-79
2020/12/14 08:25:57;;;;;;;21.92;3.08;;;;;;;10.86;80.91;98363.94;4426406;32;20099;-79
2020/12/14 08:28:32;;;;;;;17.02;2.83;;;;;;;10.88;80.30;98366.25;4428206;32;20111;-78
2020/12/14 08:30:59;;;;;;;22.50;2.83;;;;;;;10.82;80.50;98362.59;4430227;32;20417;-81
2020/12/14 08:33:25;;;;;;;21.58;3.30;;;;;;;10.76;80.59;98361.78;4430863;32;20061;-78
2020/12/14 08:35:53;;;;;;;13.77;2.85;;;;;;;10.75;80.62;98369.47;4429160;32;20450;-80
2020/12/14 08:40:58;;;;;;;19.12;2.42;;;;;;;11.11;79.07;98384.87;3966831;31;15706949;-80
2020/12/14 08:43:26;;;;;;;21.00;2.80;;;;;;;11.11;79.07;98384.87;4438378;32;20036;-79
2020/12/14 08:46:02;;;;;;;17.27;2.75;;;;;;;10.75;80.18;98389.16;4432592;32;20145;-79
2020/12/14 08:48:29;;;;;;;20.98;3.35;;;;;;;10.71;80.09;98380.16;4432399;32;20442;-80
2020/12/14 08:51:14;;;;;;;18.17;2.72;;;;;;;10.73;80.37;98400.13;4434599;32;20036;-80
2020/12/14 08:53:41;;;;;;;20.02;2.37;;;;;;;10.78;80.34;98399.41;4430625;32;20069;-79
2020/12/14 08:56:10;;;;;;;13.98;2.67;;;;;;;10.73;80.32;98402.94;4435565;32;20073;-81
2020/12/14 09:01:29;;;;;;;19.65;2.12;;;;;;;11.11;79.25;98415.84;3969056;32;15024179;-82
2020/12/14 09:03:58;;;;;;;23.62;3.05;;;;;;;11.11;79.25;98415.84;4419109;32;20465;-80
2020/12/14 09:06:28;;;;;;;22.02;3.37;;;;;;;10.67;79.78;98413.34;4424010;32;20100;-79
2020/12/14 09:08:56;;;;;;;15.18;3.40;;;;;;;10.60;80.27;98415.81;4422787;32;20678;-79
2020/12/14 09:11:21;;;;;;;19.87;2.58;;;;;;;10.65;80.11;98415.13;4420695;32;20120;-81
2020/12/14 09:13:49;;;;;;;24.00;3.53;;;;;;;10.67;79.89;98418.97;4419937;32;20469;-81
2020/12/14 09:16:17;;;;;;;18.37;2.50;;;;;;;10.60;80.04;98424.25;4423751;32;20042;-80
2020/12/14 09:18:44;;;;;;;21.27;2.85;;;;;;;10.60;80.31;98447.53;4420850;32;20045;-79
2020/12/14 09:21:10;;;;;;;23.58;3.60;;;;;;;10.56;80.26;98426.53;4424358;32;20081;-78
2020/12/14 09:23:36;;;;;;;26.12;2.53;;;;;;;10.60;80.34;98450.34;4422212;32;20080;-78
2020/12/14 09:26:02;;;;;;;20.60;2.75;;;;;;;10.57;79.96;98447.75;4422948;32;20131;-79
2020/12/14 09:28:28;;;;;;;25.98;2.95;;;;;;;10.63;79.91;98435.31;4421859;32;20481;-79
2020/12/14 09:30:54;;;;;;;16.83;2.85;;;;;;;10.68;80.02;98447.88;4421650;32;20081;-79
2020/12/14 09:33:19;;;;;;;32.58;3.17;;;;;;;10.76;79.42;98455.38;4422493;32;20084;-80
2020/12/14 09:35:45;;;;;;;18.27;2.67;;;;;;;10.77;78.93;98447.72;4419930;32;20065;-80
2020/12/14 09:38:11;;;;;;;16.90;2.55;;;;;;;10.80;78.75;98458.75;4421056;32;20228;-81
2020/12/14 09:40:36;;;;;;;22.87;2.90;;;;;;;10.87;78.40;98475.22;4418199;32;20069;-81
2020/12/14 09:43:02;;;;;;;23.80;2.80;;;;;;;10.99;79.31;98471.25;4420187;32;20057;-85
2020/12/14 09:45:28;;;;;;;16.58;2.87;;;;;;;11.01;80.50;98471.50;4422544;32;20144;-80
2020/12/14 09:47:53;;;;;;;20.70;2.92;;;;;;;10.86;81.27;98468.03;4421808;32;20440;-78
2020/12/14 09:50:19;;;;;;;13.45;2.53;;;;;;;10.80;82.03;98464.38;4420627;32;20045;-78
2020/12/14 09:52:45;;;;;;;19.35;3.03;;;;;;;10.67;81.96;98480.06;4423336;32;20091;-79
2020/12/14 09:55:12;;;;;;;20.52;2.80;;;;;;;10.63;82.34;98469.06;4419128;32;21119;-78
2020/12/14 09:57:38;;;;;;;19.23;2.97;;;;;;;10.65;82.23;98474.94;4422528;32;20446;-78
2020/12/14 10:00:04;;;;;;;19.30;3.20;;;;;;;10.71;80.79;98475.78;4419044;32;20081;-78
2020/12/14 10:02:30;;;;;;;19.75;2.83;;;;;;;10.73;80.42;98483.72;4418838;32;21573;-78
2020/12/14 10:04:55;;;;;;;21.67;3.00;;;;;;;10.79;79.96;98459.25;4419881;32;20030;-77
2020/12/14 10:07:21;;;;;;;22.20;3.30;;;;;;;10.81;79.19;98474.38;4422391;32;20085;-80
2020/12/14 10:09:47;;;;;;;22.77;2.87;;;;;;;10.83;79.26;98474.63;4404114;32;20022;-79
2020/12/14 10:12:12;;;;;;;22.33;3.53;;;;;;;10.87;78.79;98466.78;4412231;32;20026;-78
2020/12/14 10:14:38;;;;;;;21.45;3.05;;;;;;;10.83;78.49;98468.25;4410366;32;20166;-82
2020/12/14 10:17:04;;;;;;;19.67;3.10;;;;;;;10.77;79.14;98476.63;4408398;32;21024;-80
2020/12/14 10:19:31;;;;;;;24.02;3.00;;;;;;;10.84;79.35;98470.56;4407822;32;20104;-83
2020/12/14 10:21:57;;;;;;;29.35;4.07;;;;;;;10.84;78.55;98495.12;4407454;32;20033;-78
2020/12/14 10:24:22;;;;;;;17.08;3.03;;;;;;;10.93;79.37;98492.94;4408372;32;20099;-79
2020/12/14 10:26:49;;;;;;;20.80;3.22;;;;;;;10.88;79.37;98498.47;4408851;32;20484;-81
2020/12/14 10:29:17;;;;;;;21.17;3.37;;;;;;;11.02;79.01;98481.50;4409997;32;20073;-80
2020/12/14 10:31:45;;;;;;;19.10;2.62;;;;;;;11.06;79.03;98482.06;4407771;32;20041;-81
2020/12/14 10:34:12;;;;;;;21.30;2.65;;;;;;;11.27;78.23;98488.41;4408383;32;20105;-79
2020/12/14 10:36:37;;;;;;;19.20;3.15;;;;;;;11.39;77.50;98492.87;4410581;32;20053;-81
2020/12/14 10:39:04;;;;;;;25.98;2.92;;;;;;;11.40;77.34;98502.84;4408783;32;20409;-81
2020/12/14 10:41:29;;;;;;;25.37;3.03;;;;;;;11.38;77.41;98478.00;4408369;32;20548;-77
2020/12/14 10:43:55;;;;;;;24.37;2.87;;;;;;;11.44;77.54;98481.66;4407996;32;20430;-80
2020/12/14 10:46:25;;;;;;;24.25;3.50;;;;;;;11.45;76.64;98493.69;4410347;32;20879;-81
2020/12/14 10:48:51;;;;;;;22.25;2.47;;;;;;;11.37;76.43;98493.38;4408960;32;20164;-82
2020/12/14 10:51:16;;;;;;;23.30;3.10;;;;;;;11.32;76.05;98491.25;4408858;32;20323;-77
2020/12/14 10:53:43;;;;;;;15.20;2.40;;;;;;;11.33;76.14;98497.69;4405634;32;20034;-77
2020/12/14 10:56:08;;;;;;;16.62;3.22;;;;;;;11.26;75.67;98476.37;4411906;32;20070;-78
2020/12/14 10:58:34;;;;;;;15.93;2.47;;;;;;;11.29;75.59;98511.22;4409401;32;20062;-79
2020/12/14 11:01:00;;;;;;;21.02;2.62;;;;;;;11.32;75.32;98488.44;4408151;32;20196;-79
2020/12/14 11:03:25;;;;;;;21.83;3.78;;;;;;;11.35;75.26;98492.34;4411694;32;20073;-78
2020/12/14 11:05:53;;;;;;;17.87;2.67;;;;;;;11.39;75.04;98501.31;4410479;32;20093;-80
2020/12/14 11:08:19;;;;;;;19.80;2.37;;;;;;;11.50;74.72;98505.00;4406230;32;20073;-80
2020/12/14 11:10:45;;;;;;;25.17;3.47;;;;;;;11.56;74.28;98496.59;4407672;32;20423;-81
2020/12/14 11:13:11;;;;;;;22.58;3.28;;;;;;;11.73;74.28;98503.19;4407934;32;20104;-80
2020/12/14 11:15:36;;;;;;;27.98;3.15;;;;;;;11.65;72.88;98502.88;4408651;32;20069;-80
2020/12/14 11:18:02;;;;;;;18.05;2.53;;;;;;;11.84;72.93;98494.81;4407101;32;20134;-79
2020/12/14 11:20:28;;;;;;;18.48;2.75;;;;;;;11.87;72.68;98505.06;4407705;32;20073;-81
2020/12/14 11:22:53;;;;;;;22.27;3.60;;;;;;;12.07;72.11;98504.97;4412243;32;20042;-80
2020/12/14 11:25:19;;;;;;;21.92;3.67;;;;;;;12.09;71.83;98497.56;4411012;32;20018;-85
2020/12/14 11:27:45;;;;;;;17.77;2.47;;;;;;;12.08;72.17;98512.94;4411523;32;20066;-82
2020/12/14 11:30:11;;;;;;;19.37;2.97;;;;;;;12.08;72.03;98495.22;4409904;32;20073;-85
2020/12/14 11:32:36;;;;;;;19.48;2.85;;;;;;;12.19;71.36;98488.91;4410840;32;20042;-81
2020/12/14 11:35:03;;;;;;;17.48;2.40;;;;;;;12.26;71.25;98511.75;4411334;32;20464;-82
2020/12/14 11:37:29;;;;;;;20.83;2.70;;;;;;;12.22;71.41;98494.31;4410235;32;20038;-81
2020/12/14 11:39:54;;;;;;;19.73;2.42;;;;;;;12.09;71.02;98508.06;4407191;32;20083;-83
2020/12/14 11:42:20;;;;;;;22.23;2.65;;;;;;;12.13;71.45;98496.53;4407332;32;20099;-80
2020/12/14 11:44:46;;;;;;;22.95;3.62;;;;;;;12.07;71.47;98502.94;4402032;32;22229;-83
2020/12/14 11:47:12;;;;;;;20.98;3.60;;;;;;;11.96;71.80;98516.16;4398606;32;20062;-81
2020/12/14 11:49:40;;;;;;;23.83;3.62;;;;;;;11.85;71.79;98519.66;4402033;32;20033;-82
2020/12/14 11:52:07;;;;;;;24.00;3.58;;;;;;;11.76;71.99;98519.84;4405860;32;20034;-82
2020/12/14 11:54:33;;;;;;;19.00;2.95;;;;;;;11.67;72.48;98510.81;4407942;32;20066;-80
2020/12/14 11:56:59;;;;;;;21.83;2.62;;;;;;;11.52;71.80;98527.03;4409530;32;20101;-79
2020/12/14 11:59:25;;;;;;;19.67;3.55;;;;;;;11.48;72.13;98530.06;4406549;32;20088;-81
2020/12/14 12:01:54;;;;;;;20.50;2.92;;;;;;;11.59;72.70;98518.12;4404136;32;20078;-76